sensor_id;sensor_type;location;lat;lon;timestamp;P1;durP1;ratioP1;P2;durP2;ratioP2
12784;SDS011;6456;42.680;23.260;2024-02-23T00:00:54;7.97;;;6.30;;
12784;SDS011;6456;42.680;23.260;2024-02-23T00:03:21;7.93;;;6.40;;
12784;SDS011;6456;42.680;23.260;2024-02-23T00:05:50;8.00;;;6.50;;
12784;SDS011;6456;42.680;23.260;2024-02-23T00:08:18;8.20;;;6.47;;
12784;SDS011;6456;42.680;23.260;2024-02-23T00:10:45;8.10;;;6.50;;
12784;SDS011;6456;42.680;23.260;2024-02-23T00:13:12;8.23;;;6.20;;
12784;SDS011;6456;42.680;23.260;2024-02-23T00:15:39;9.33;;;6.40;;
12784;SDS011;6456;42.680;23.260;2024-02-23T00:18:09;7.97;;;6.37;;
12784;SDS011;6456;42.680;23.260;2024-02-23T00:20:38;6.53;;;5.70;;
12784;SDS011;6456;42.680;23.260;2024-02-23T00:23:06;6.70;;;5.80;;
12784;SDS011;6456;42.680;23.260;2024-02-23T00:25:33;7.30;;;6.13;;
12784;SDS011;6456;42.680;23.260;2024-02-23T00:28:00;8.30;;;6.40;;
12784;SDS011;6456;42.680;23.260;2024-02-23T00:30:27;6.80;;;6.03;;
12784;SDS011;6456;42.680;23.260;2024-02-23T00:32:54;7.10;;;6.00;;
12784;SDS011;6456;42.680;23.260;2024-02-23T00:35:21;7.87;;;7.03;;
12784;SDS011;6456;42.680;23.260;2024-02-23T00:37:48;9.13;;;6.80;;
12784;SDS011;6456;42.680;23.260;2024-02-23T00:40:18;9.60;;;6.60;;
12784;SDS011;6456;42.680;23.260;2024-02-23T00:42:45;7.27;;;6.40;;
12784;SDS011;6456;42.680;23.260;2024-02-23T00:45:12;8.07;;;6.80;;
12784;SDS011;6456;42.680;23.260;2024-02-23T00:47:39;10.30;;;7.00;;
12784;SDS011;6456;42.680;23.260;2024-02-23T00:50:06;10.83;;;7.97;;
12784;SDS011;6456;42.680;23.260;2024-02-23T00:52:33;10.57;;;7.93;;
12784;SDS011;6456;42.680;23.260;2024-02-23T00:55:00;12.30;;;8.40;;
12784;SDS011;6456;42.680;23.260;2024-02-23T00:57:29;12.53;;;8.47;;
12784;SDS011;6456;42.680;23.260;2024-02-23T00:59:56;11.43;;;8.70;;
12784;SDS011;6456;42.680;23.260;2024-02-23T01:02:23;11.20;;;8.30;;
12784;SDS011;6456;42.680;23.260;2024-02-23T01:04:50;11.97;;;8.93;;
12784;SDS011;6456;42.680;23.260;2024-02-23T01:07:16;9.80;;;7.40;;
12784;SDS011;6456;42.680;23.260;2024-02-23T01:09:43;10.07;;;7.83;;
12784;SDS011;6456;42.680;23.260;2024-02-23T01:12:10;9.97;;;8.63;;
12784;SDS011;6456;42.680;23.260;2024-02-23T01:14:38;10.07;;;8.03;;
12784;SDS011;6456;42.680;23.260;2024-02-23T01:17:05;9.90;;;7.27;;
12784;SDS011;6456;42.680;23.260;2024-02-23T01:19:32;9.33;;;6.87;;
12784;SDS011;6456;42.680;23.260;2024-02-23T01:21:59;6.83;;;6.13;;
12784;SDS011;6456;42.680;23.260;2024-02-23T01:24:26;9.63;;;7.87;;
12784;SDS011;6456;42.680;23.260;2024-02-23T01:26:54;8.37;;;6.67;;
12784;SDS011;6456;42.680;23.260;2024-02-23T01:29:21;9.70;;;8.07;;
12784;SDS011;6456;42.680;23.260;2024-02-23T01:31:50;11.67;;;9.30;;
12784;SDS011;6456;42.680;23.260;2024-02-23T01:34:17;15.00;;;9.23;;
12784;SDS011;6456;42.680;23.260;2024-02-23T01:36:44;12.97;;;9.83;;
12784;SDS011;6456;42.680;23.260;2024-02-23T01:39:11;11.40;;;9.13;;
12784;SDS011;6456;42.680;23.260;2024-02-23T01:41:38;12.43;;;9.33;;
12784;SDS011;6456;42.680;23.260;2024-02-23T01:44:05;13.00;;;9.30;;
12784;SDS011;6456;42.680;23.260;2024-02-23T01:46:32;10.67;;;8.50;;
12784;SDS011;6456;42.680;23.260;2024-02-23T01:49:01;10.87;;;8.70;;
12784;SDS011;6456;42.680;23.260;2024-02-23T01:51:29;11.87;;;8.60;;
12784;SDS011;6456;42.680;23.260;2024-02-23T01:53:56;12.10;;;8.67;;
12784;SDS011;6456;42.680;23.260;2024-02-23T01:56:23;10.17;;;8.30;;
12784;SDS011;6456;42.680;23.260;2024-02-23T01:58:50;11.50;;;8.73;;
12784;SDS011;6456;42.680;23.260;2024-02-23T02:01:19;11.53;;;8.83;;
12784;SDS011;6456;42.680;23.260;2024-02-23T02:03:46;11.30;;;8.73;;
12784;SDS011;6456;42.680;23.260;2024-02-23T02:06:14;11.57;;;9.03;;
12784;SDS011;6456;42.680;23.260;2024-02-23T02:08:41;10.67;;;7.87;;
12784;SDS011;6456;42.680;23.260;2024-02-23T02:11:08;9.83;;;7.77;;
12784;SDS011;6456;42.680;23.260;2024-02-23T02:13:35;7.63;;;6.33;;
12784;SDS011;6456;42.680;23.260;2024-02-23T02:16:03;9.20;;;7.60;;
12784;SDS011;6456;42.680;23.260;2024-02-23T02:18:30;10.57;;;8.33;;
12784;SDS011;6456;42.680;23.260;2024-02-23T02:20:57;9.73;;;7.87;;
12784;SDS011;6456;42.680;23.260;2024-02-23T02:23:25;11.67;;;8.07;;
12784;SDS011;6456;42.680;23.260;2024-02-23T02:25:53;10.20;;;8.07;;
12784;SDS011;6456;42.680;23.260;2024-02-23T02:28:20;11.40;;;8.17;;
12784;SDS011;6456;42.680;23.260;2024-02-23T02:30:48;12.67;;;8.47;;
12784;SDS011;6456;42.680;23.260;2024-02-23T02:33:15;9.60;;;8.30;;
12784;SDS011;6456;42.680;23.260;2024-02-23T02:35:42;11.10;;;7.97;;
12784;SDS011;6456;42.680;23.260;2024-02-23T02:38:10;9.53;;;7.97;;
12784;SDS011;6456;42.680;23.260;2024-02-23T02:40:38;10.50;;;8.20;;
12784;SDS011;6456;42.680;23.260;2024-02-23T02:43:05;12.57;;;8.87;;
12784;SDS011;6456;42.680;23.260;2024-02-23T02:45:33;11.97;;;8.37;;
12784;SDS011;6456;42.680;23.260;2024-02-23T02:48:00;11.13;;;8.43;;
12784;SDS011;6456;42.680;23.260;2024-02-23T02:50:28;10.33;;;8.47;;
12784;SDS011;6456;42.680;23.260;2024-02-23T02:52:58;8.67;;;7.67;;
12784;SDS011;6456;42.680;23.260;2024-02-23T02:55:25;10.67;;;7.70;;
12784;SDS011;6456;42.680;23.260;2024-02-23T02:57:53;10.47;;;7.90;;
12784;SDS011;6456;42.680;23.260;2024-02-23T03:00:20;13.47;;;8.70;;
12784;SDS011;6456;42.680;23.260;2024-02-23T03:02:47;14.40;;;8.43;;
12784;SDS011;6456;42.680;23.260;2024-02-23T03:05:14;9.13;;;7.63;;
12784;SDS011;6456;42.680;23.260;2024-02-23T03:07:41;10.37;;;8.03;;
12784;SDS011;6456;42.680;23.260;2024-02-23T03:10:11;9.87;;;8.07;;
12784;SDS011;6456;42.680;23.260;2024-02-23T03:12:38;7.83;;;7.00;;
12784;SDS011;6456;42.680;23.260;2024-02-23T03:15:07;10.30;;;7.50;;
12784;SDS011;6456;42.680;23.260;2024-02-23T03:17:35;8.40;;;7.50;;
12784;SDS011;6456;42.680;23.260;2024-02-23T03:20:02;8.90;;;7.10;;
12784;SDS011;6456;42.680;23.260;2024-02-23T03:22:33;8.20;;;6.90;;
12784;SDS011;6456;42.680;23.260;2024-02-23T03:25:00;8.57;;;7.50;;
12784;SDS011;6456;42.680;23.260;2024-02-23T03:27:33;9.80;;;7.87;;
12784;SDS011;6456;42.680;23.260;2024-02-23T03:30:02;10.80;;;7.77;;
12784;SDS011;6456;42.680;23.260;2024-02-23T03:32:31;10.23;;;7.87;;
12784;SDS011;6456;42.680;23.260;2024-02-23T03:35:01;10.27;;;8.37;;
12784;SDS011;6456;42.680;23.260;2024-02-23T03:37:29;10.63;;;8.27;;
12784;SDS011;6456;42.680;23.260;2024-02-23T03:39:56;9.70;;;8.10;;
12784;SDS011;6456;42.680;23.260;2024-02-23T03:42:24;11.23;;;8.17;;
12784;SDS011;6456;42.680;23.260;2024-02-23T03:44:51;10.13;;;8.40;;
12784;SDS011;6456;42.680;23.260;2024-02-23T03:47:18;10.97;;;8.23;;
12784;SDS011;6456;42.680;23.260;2024-02-23T03:49:47;13.27;;;8.67;;
12784;SDS011;6456;42.680;23.260;2024-02-23T03:52:14;12.07;;;8.33;;
12784;SDS011;6456;42.680;23.260;2024-02-23T03:54:41;11.43;;;8.47;;
12784;SDS011;6456;42.680;23.260;2024-02-23T03:57:08;10.23;;;7.87;;
12784;SDS011;6456;42.680;23.260;2024-02-23T03:59:35;11.57;;;7.43;;
12784;SDS011;6456;42.680;23.260;2024-02-23T04:02:03;10.17;;;8.00;;
12784;SDS011;6456;42.680;23.260;2024-02-23T04:04:31;9.40;;;7.77;;
12784;SDS011;6456;42.680;23.260;2024-02-23T04:06:59;8.87;;;7.83;;
12784;SDS011;6456;42.680;23.260;2024-02-23T04:09:26;12.83;;;9.53;;
12784;SDS011;6456;42.680;23.260;2024-02-23T04:11:53;11.70;;;9.10;;
12784;SDS011;6456;42.680;23.260;2024-02-23T04:14:20;13.40;;;9.50;;
12784;SDS011;6456;42.680;23.260;2024-02-23T04:16:47;12.67;;;9.70;;
12784;SDS011;6456;42.680;23.260;2024-02-23T04:19:14;10.73;;;9.30;;
12784;SDS011;6456;42.680;23.260;2024-02-23T04:21:41;15.13;;;11.87;;
12784;SDS011;6456;42.680;23.260;2024-02-23T04:24:10;14.27;;;10.73;;
12784;SDS011;6456;42.680;23.260;2024-02-23T04:26:37;12.60;;;10.23;;
12784;SDS011;6456;42.680;23.260;2024-02-23T04:29:04;12.33;;;10.07;;
12784;SDS011;6456;42.680;23.260;2024-02-23T04:31:31;13.87;;;10.80;;
12784;SDS011;6456;42.680;23.260;2024-02-23T04:33:58;14.93;;;10.70;;
12784;SDS011;6456;42.680;23.260;2024-02-23T04:36:25;14.60;;;11.47;;
12784;SDS011;6456;42.680;23.260;2024-02-23T04:38:52;16.97;;;12.77;;
12784;SDS011;6456;42.680;23.260;2024-02-23T04:41:20;26.70;;;18.77;;
12784;SDS011;6456;42.680;23.260;2024-02-23T04:43:47;34.93;;;24.40;;
12784;SDS011;6456;42.680;23.260;2024-02-23T04:46:14;18.63;;;14.43;;
12784;SDS011;6456;42.680;23.260;2024-02-23T04:48:41;11.73;;;9.80;;
12784;SDS011;6456;42.680;23.260;2024-02-23T04:51:08;20.93;;;15.23;;
12784;SDS011;6456;42.680;23.260;2024-02-23T04:53:36;21.50;;;14.63;;
12784;SDS011;6456;42.680;23.260;2024-02-23T04:56:03;48.33;;;28.37;;
12784;SDS011;6456;42.680;23.260;2024-02-23T04:58:32;33.53;;;19.03;;
12784;SDS011;6456;42.680;23.260;2024-02-23T05:00:59;18.30;;;12.40;;
12784;SDS011;6456;42.680;23.260;2024-02-23T05:03:28;26.53;;;16.63;;
12784;SDS011;6456;42.680;23.260;2024-02-23T05:05:55;14.97;;;10.70;;
12784;SDS011;6456;42.680;23.260;2024-02-23T05:08:22;17.00;;;11.93;;
12784;SDS011;6456;42.680;23.260;2024-02-23T05:10:49;20.87;;;13.87;;
12784;SDS011;6456;42.680;23.260;2024-02-23T05:13:17;22.80;;;15.67;;
12784;SDS011;6456;42.680;23.260;2024-02-23T05:15:45;21.83;;;14.43;;
12784;SDS011;6456;42.680;23.260;2024-02-23T05:18:12;13.47;;;10.00;;
12784;SDS011;6456;42.680;23.260;2024-02-23T05:20:39;14.00;;;10.20;;
12784;SDS011;6456;42.680;23.260;2024-02-23T05:23:06;10.83;;;8.10;;
12784;SDS011;6456;42.680;23.260;2024-02-23T05:25:34;19.20;;;11.60;;
12784;SDS011;6456;42.680;23.260;2024-02-23T05:28:01;10.10;;;9.00;;
12784;SDS011;6456;42.680;23.260;2024-02-23T05:30:28;12.73;;;8.20;;
12784;SDS011;6456;42.680;23.260;2024-02-23T05:32:57;19.40;;;11.07;;
12784;SDS011;6456;42.680;23.260;2024-02-23T05:35:28;22.97;;;13.93;;
12784;SDS011;6456;42.680;23.260;2024-02-23T05:37:55;18.37;;;12.63;;
12784;SDS011;6456;42.680;23.260;2024-02-23T05:40:22;18.50;;;13.27;;
12784;SDS011;6456;42.680;23.260;2024-02-23T05:42:49;16.63;;;11.57;;
12784;SDS011;6456;42.680;23.260;2024-02-23T05:45:16;16.07;;;11.13;;
12784;SDS011;6456;42.680;23.260;2024-02-23T05:47:43;15.87;;;11.03;;
12784;SDS011;6456;42.680;23.260;2024-02-23T05:50:12;17.10;;;11.60;;
12784;SDS011;6456;42.680;23.260;2024-02-23T05:52:39;15.63;;;10.00;;
12784;SDS011;6456;42.680;23.260;2024-02-23T05:55:06;15.07;;;10.13;;
12784;SDS011;6456;42.680;23.260;2024-02-23T05:57:34;13.27;;;8.93;;
12784;SDS011;6456;42.680;23.260;2024-02-23T06:00:01;14.30;;;9.93;;
12784;SDS011;6456;42.680;23.260;2024-02-23T06:02:28;17.77;;;11.43;;
12784;SDS011;6456;42.680;23.260;2024-02-23T06:04:55;16.33;;;10.20;;
12784;SDS011;6456;42.680;23.260;2024-02-23T06:07:24;14.43;;;10.17;;
12784;SDS011;6456;42.680;23.260;2024-02-23T06:09:54;17.57;;;10.60;;
12784;SDS011;6456;42.680;23.260;2024-02-23T06:12:21;20.77;;;10.87;;
12784;SDS011;6456;42.680;23.260;2024-02-23T06:14:48;13.77;;;8.93;;
12784;SDS011;6456;42.680;23.260;2024-02-23T06:17:15;15.73;;;10.47;;
12784;SDS011;6456;42.680;23.260;2024-02-23T06:19:44;13.80;;;10.00;;
12784;SDS011;6456;42.680;23.260;2024-02-23T06:22:11;25.50;;;13.50;;
12784;SDS011;6456;42.680;23.260;2024-02-23T06:24:41;22.40;;;12.00;;
12784;SDS011;6456;42.680;23.260;2024-02-23T06:27:08;14.07;;;10.20;;
12784;SDS011;6456;42.680;23.260;2024-02-23T06:29:35;17.83;;;10.27;;
12784;SDS011;6456;42.680;23.260;2024-02-23T06:32:02;16.63;;;10.00;;
12784;SDS011;6456;42.680;23.260;2024-02-23T06:34:30;15.93;;;10.77;;
12784;SDS011;6456;42.680;23.260;2024-02-23T06:36:57;17.43;;;10.57;;
12784;SDS011;6456;42.680;23.260;2024-02-23T06:39:24;20.57;;;12.40;;
12784;SDS011;6456;42.680;23.260;2024-02-23T06:41:52;14.97;;;11.30;;
12784;SDS011;6456;42.680;23.260;2024-02-23T06:44:19;18.43;;;10.10;;
12784;SDS011;6456;42.680;23.260;2024-02-23T06:46:46;13.83;;;9.80;;
12784;SDS011;6456;42.680;23.260;2024-02-23T06:49:13;11.70;;;9.33;;
12784;SDS011;6456;42.680;23.260;2024-02-23T06:51:40;17.63;;;10.17;;
12784;SDS011;6456;42.680;23.260;2024-02-23T06:54:07;19.50;;;10.70;;
12784;SDS011;6456;42.680;23.260;2024-02-23T06:56:34;14.27;;;9.90;;
12784;SDS011;6456;42.680;23.260;2024-02-23T06:59:03;12.67;;;9.87;;
12784;SDS011;6456;42.680;23.260;2024-02-23T07:01:30;11.30;;;9.20;;
12784;SDS011;6456;42.680;23.260;2024-02-23T07:03:59;12.57;;;9.43;;
12784;SDS011;6456;42.680;23.260;2024-02-23T07:06:25;14.03;;;10.17;;
12784;SDS011;6456;42.680;23.260;2024-02-23T07:08:56;19.30;;;10.80;;
12784;SDS011;6456;42.680;23.260;2024-02-23T07:11:23;14.13;;;10.30;;
12784;SDS011;6456;42.680;23.260;2024-02-23T07:13:50;14.80;;;10.13;;
12784;SDS011;6456;42.680;23.260;2024-02-23T07:16:19;12.60;;;10.07;;
12784;SDS011;6456;42.680;23.260;2024-02-23T07:18:46;12.20;;;9.10;;
12784;SDS011;6456;42.680;23.260;2024-02-23T07:21:13;12.57;;;9.30;;
12784;SDS011;6456;42.680;23.260;2024-02-23T07:23:40;11.90;;;9.27;;
12784;SDS011;6456;42.680;23.260;2024-02-23T07:26:07;11.40;;;8.70;;
12784;SDS011;6456;42.680;23.260;2024-02-23T07:28:34;15.30;;;9.07;;
12784;SDS011;6456;42.680;23.260;2024-02-23T07:31:01;15.10;;;9.00;;
12784;SDS011;6456;42.680;23.260;2024-02-23T07:33:30;18.10;;;10.43;;
12784;SDS011;6456;42.680;23.260;2024-02-23T07:35:57;14.33;;;10.30;;
12784;SDS011;6456;42.680;23.260;2024-02-23T07:38:25;24.97;;;11.73;;
12784;SDS011;6456;42.680;23.260;2024-02-23T07:40:52;19.50;;;10.90;;
12784;SDS011;6456;42.680;23.260;2024-02-23T07:43:19;12.53;;;10.07;;
12784;SDS011;6456;42.680;23.260;2024-02-23T07:45:46;12.33;;;10.13;;
12784;SDS011;6456;42.680;23.260;2024-02-23T07:48:13;13.87;;;9.87;;
12784;SDS011;6456;42.680;23.260;2024-02-23T07:50:41;12.27;;;10.50;;
12784;SDS011;6456;42.680;23.260;2024-02-23T07:53:08;12.73;;;10.30;;
12784;SDS011;6456;42.680;23.260;2024-02-23T07:55:36;14.57;;;11.17;;
12784;SDS011;6456;42.680;23.260;2024-02-23T07:58:03;20.10;;;10.63;;
12784;SDS011;6456;42.680;23.260;2024-02-23T08:00:30;24.20;;;12.20;;
12784;SDS011;6456;42.680;23.260;2024-02-23T08:02:57;14.03;;;11.23;;
12784;SDS011;6456;42.680;23.260;2024-02-23T08:05:25;16.50;;;11.67;;
12784;SDS011;6456;42.680;23.260;2024-02-23T08:07:53;16.83;;;11.40;;
12784;SDS011;6456;42.680;23.260;2024-02-23T08:10:21;20.73;;;12.17;;
12784;SDS011;6456;42.680;23.260;2024-02-23T08:12:48;16.33;;;12.37;;
12784;SDS011;6456;42.680;23.260;2024-02-23T08:15:15;16.17;;;12.33;;
12784;SDS011;6456;42.680;23.260;2024-02-23T08:17:42;18.00;;;12.33;;
12784;SDS011;6456;42.680;23.260;2024-02-23T08:20:10;16.90;;;12.37;;
12784;SDS011;6456;42.680;23.260;2024-02-23T08:22:37;17.63;;;12.57;;
12784;SDS011;6456;42.680;23.260;2024-02-23T08:25:06;18.43;;;12.30;;
12784;SDS011;6456;42.680;23.260;2024-02-23T08:27:33;21.80;;;13.17;;
12784;SDS011;6456;42.680;23.260;2024-02-23T08:30:00;20.23;;;12.77;;
12784;SDS011;6456;42.680;23.260;2024-02-23T08:32:28;17.63;;;13.07;;
12784;SDS011;6456;42.680;23.260;2024-02-23T08:34:55;16.70;;;11.37;;
12784;SDS011;6456;42.680;23.260;2024-02-23T08:37:24;14.10;;;11.20;;
12784;SDS011;6456;42.680;23.260;2024-02-23T08:39:51;14.83;;;10.83;;
12784;SDS011;6456;42.680;23.260;2024-02-23T08:42:20;19.93;;;10.80;;
12784;SDS011;6456;42.680;23.260;2024-02-23T08:44:47;14.63;;;11.33;;
12784;SDS011;6456;42.680;23.260;2024-02-23T08:47:14;12.77;;;9.93;;
12784;SDS011;6456;42.680;23.260;2024-02-23T08:49:42;11.80;;;9.03;;
12784;SDS011;6456;42.680;23.260;2024-02-23T08:52:09;15.50;;;8.77;;
12784;SDS011;6456;42.680;23.260;2024-02-23T08:54:36;12.60;;;9.10;;
12784;SDS011;6456;42.680;23.260;2024-02-23T08:57:04;14.53;;;9.17;;
12784;SDS011;6456;42.680;23.260;2024-02-23T08:59:33;14.67;;;9.47;;
12784;SDS011;6456;42.680;23.260;2024-02-23T09:02:00;18.43;;;9.60;;
12784;SDS011;6456;42.680;23.260;2024-02-23T09:04:27;14.27;;;8.00;;
12784;SDS011;6456;42.680;23.260;2024-02-23T09:06:54;9.20;;;7.50;;
12784;SDS011;6456;42.680;23.260;2024-02-23T09:09:21;11.53;;;6.57;;
12784;SDS011;6456;42.680;23.260;2024-02-23T09:11:48;9.40;;;6.03;;
12784;SDS011;6456;42.680;23.260;2024-02-23T09:14:15;6.57;;;5.30;;
12784;SDS011;6456;42.680;23.260;2024-02-23T09:16:44;6.57;;;5.30;;
12784;SDS011;6456;42.680;23.260;2024-02-23T09:19:12;8.87;;;5.33;;
12784;SDS011;6456;42.680;23.260;2024-02-23T09:21:39;6.87;;;5.23;;
12784;SDS011;6456;42.680;23.260;2024-02-23T09:24:08;6.00;;;5.00;;
12784;SDS011;6456;42.680;23.260;2024-02-23T09:26:35;5.13;;;4.63;;
12784;SDS011;6456;42.680;23.260;2024-02-23T09:29:02;5.03;;;4.40;;
12784;SDS011;6456;42.680;23.260;2024-02-23T09:31:29;4.17;;;3.77;;
12784;SDS011;6456;42.680;23.260;2024-02-23T09:33:58;5.63;;;3.93;;
12784;SDS011;6456;42.680;23.260;2024-02-23T09:36:25;4.87;;;4.33;;
12784;SDS011;6456;42.680;23.260;2024-02-23T09:38:53;4.40;;;4.00;;
12784;SDS011;6456;42.680;23.260;2024-02-23T09:41:21;6.10;;;3.87;;
12784;SDS011;6456;42.680;23.260;2024-02-23T09:43:49;4.83;;;4.33;;
12784;SDS011;6456;42.680;23.260;2024-02-23T09:46:17;6.90;;;4.40;;
12784;SDS011;6456;42.680;23.260;2024-02-23T09:48:47;7.47;;;4.13;;
12784;SDS011;6456;42.680;23.260;2024-02-23T09:51:16;5.93;;;3.60;;
12784;SDS011;6456;42.680;23.260;2024-02-23T09:53:44;4.50;;;3.70;;
12784;SDS011;6456;42.680;23.260;2024-02-23T09:56:12;6.23;;;3.63;;
12784;SDS011;6456;42.680;23.260;2024-02-23T09:58:42;3.40;;;3.10;;
12784;SDS011;6456;42.680;23.260;2024-02-23T10:01:11;3.00;;;2.70;;
12784;SDS011;6456;42.680;23.260;2024-02-23T10:03:38;3.00;;;2.37;;
12784;SDS011;6456;42.680;23.260;2024-02-23T10:06:05;2.63;;;2.43;;
12784;SDS011;6456;42.680;23.260;2024-02-23T10:08:34;3.03;;;2.63;;
12784;SDS011;6456;42.680;23.260;2024-02-23T10:11:04;4.53;;;2.80;;
12784;SDS011;6456;42.680;23.260;2024-02-23T10:13:34;3.20;;;2.83;;
12784;SDS011;6456;42.680;23.260;2024-02-23T10:16:01;3.17;;;2.50;;
12784;SDS011;6456;42.680;23.260;2024-02-23T10:18:34;3.17;;;2.70;;
12784;SDS011;6456;42.680;23.260;2024-02-23T10:21:01;4.33;;;2.67;;
12784;SDS011;6456;42.680;23.260;2024-02-23T10:23:28;3.37;;;3.07;;
12784;SDS011;6456;42.680;23.260;2024-02-23T10:25:57;6.17;;;2.80;;
12784;SDS011;6456;42.680;23.260;2024-02-23T10:28:27;2.53;;;2.30;;
12784;SDS011;6456;42.680;23.260;2024-02-23T10:30:54;5.67;;;2.50;;
12784;SDS011;6456;42.680;23.260;2024-02-23T10:33:22;2.60;;;2.40;;
12784;SDS011;6456;42.680;23.260;2024-02-23T10:35:50;2.30;;;2.10;;
12784;SDS011;6456;42.680;23.260;2024-02-23T10:38:22;15.73;;;2.87;;
12784;SDS011;6456;42.680;23.260;2024-02-23T10:40:50;2.13;;;1.93;;
12784;SDS011;6456;42.680;23.260;2024-02-23T10:43:29;3.50;;;2.10;;
12784;SDS011;6456;42.680;23.260;2024-02-23T10:46:02;5.37;;;2.77;;
12784;SDS011;6456;42.680;23.260;2024-02-23T10:48:37;2.57;;;2.37;;
12784;SDS011;6456;42.680;23.260;2024-02-23T10:51:05;3.23;;;2.30;;
12784;SDS011;6456;42.680;23.260;2024-02-23T10:53:34;3.27;;;2.37;;
12784;SDS011;6456;42.680;23.260;2024-02-23T10:56:01;3.70;;;2.10;;
12784;SDS011;6456;42.680;23.260;2024-02-23T10:58:34;3.63;;;2.03;;
12784;SDS011;6456;42.680;23.260;2024-02-23T11:01:11;3.70;;;2.03;;
12784;SDS011;6456;42.680;23.260;2024-02-23T11:03:41;2.60;;;2.40;;
12784;SDS011;6456;42.680;23.260;2024-02-23T11:06:15;2.30;;;1.77;;
12784;SDS011;6456;42.680;23.260;2024-02-23T11:08:46;3.17;;;2.30;;
12784;SDS011;6456;42.680;23.260;2024-02-23T11:11:15;6.03;;;2.33;;
12784;SDS011;6456;42.680;23.260;2024-02-23T11:13:44;2.30;;;2.00;;
12784;SDS011;6456;42.680;23.260;2024-02-23T11:16:22;2.93;;;2.10;;
12784;SDS011;6456;42.680;23.260;2024-02-23T11:19:01;2.63;;;2.30;;
12784;SDS011;6456;42.680;23.260;2024-02-23T11:21:33;2.17;;;1.70;;
12784;SDS011;6456;42.680;23.260;2024-02-23T11:24:02;3.40;;;2.37;;
12784;SDS011;6456;42.680;23.260;2024-02-23T11:26:39;2.00;;;1.90;;
12784;SDS011;6456;42.680;23.260;2024-02-23T11:29:11;3.20;;;1.77;;
12784;SDS011;6456;42.680;23.260;2024-02-23T11:31:44;4.70;;;1.80;;
12784;SDS011;6456;42.680;23.260;2024-02-23T11:34:21;1.90;;;1.80;;
12784;SDS011;6456;42.680;23.260;2024-02-23T11:36:53;2.73;;;1.90;;
12784;SDS011;6456;42.680;23.260;2024-02-23T11:39:21;3.53;;;1.93;;
12784;SDS011;6456;42.680;23.260;2024-02-23T11:41:49;4.20;;;2.67;;
12784;SDS011;6456;42.680;23.260;2024-02-23T11:44:18;2.00;;;1.90;;
12784;SDS011;6456;42.680;23.260;2024-02-23T11:46:46;4.83;;;2.30;;
12784;SDS011;6456;42.680;23.260;2024-02-23T11:49:16;3.70;;;2.00;;
12784;SDS011;6456;42.680;23.260;2024-02-23T11:51:43;2.47;;;1.77;;
12784;SDS011;6456;42.680;23.260;2024-02-23T11:54:13;4.53;;;2.00;;
12784;SDS011;6456;42.680;23.260;2024-02-23T11:56:41;3.37;;;1.70;;
12784;SDS011;6456;42.680;23.260;2024-02-23T11:59:08;2.10;;;1.87;;
12784;SDS011;6456;42.680;23.260;2024-02-23T12:01:40;3.83;;;2.00;;
12784;SDS011;6456;42.680;23.260;2024-02-23T12:04:07;3.50;;;1.90;;
12784;SDS011;6456;42.680;23.260;2024-02-23T12:06:37;2.17;;;1.70;;
12784;SDS011;6456;42.680;23.260;2024-02-23T12:09:15;5.90;;;1.90;;
12784;SDS011;6456;42.680;23.260;2024-02-23T12:11:42;4.70;;;2.20;;
12784;SDS011;6456;42.680;23.260;2024-02-23T12:14:14;3.73;;;2.20;;
12784;SDS011;6456;42.680;23.260;2024-02-23T12:16:44;3.73;;;2.00;;
12784;SDS011;6456;42.680;23.260;2024-02-23T12:19:11;4.10;;;2.23;;
12784;SDS011;6456;42.680;23.260;2024-02-23T12:21:39;2.87;;;2.20;;
12784;SDS011;6456;42.680;23.260;2024-02-23T12:24:06;3.60;;;2.10;;
12784;SDS011;6456;42.680;23.260;2024-02-23T12:26:34;4.97;;;2.00;;
12784;SDS011;6456;42.680;23.260;2024-02-23T12:29:01;3.50;;;2.30;;
12784;SDS011;6456;42.680;23.260;2024-02-23T12:31:30;2.87;;;2.10;;
12784;SDS011;6456;42.680;23.260;2024-02-23T12:34:01;3.83;;;2.00;;
12784;SDS011;6456;42.680;23.260;2024-02-23T12:36:29;1.50;;;1.40;;
12784;SDS011;6456;42.680;23.260;2024-02-23T12:39:00;3.00;;;1.80;;
12784;SDS011;6456;42.680;23.260;2024-02-23T12:41:27;2.80;;;1.60;;
12784;SDS011;6456;42.680;23.260;2024-02-23T12:43:54;4.60;;;2.10;;
12784;SDS011;6456;42.680;23.260;2024-02-23T12:46:23;6.13;;;2.30;;
12784;SDS011;6456;42.680;23.260;2024-02-23T12:48:51;2.43;;;1.70;;
12784;SDS011;6456;42.680;23.260;2024-02-23T12:51:20;1.87;;;1.73;;
12784;SDS011;6456;42.680;23.260;2024-02-23T12:53:52;2.60;;;1.77;;
12784;SDS011;6456;42.680;23.260;2024-02-23T12:56:19;1.80;;;1.70;;
12784;SDS011;6456;42.680;23.260;2024-02-23T12:58:46;4.70;;;2.13;;
12784;SDS011;6456;42.680;23.260;2024-02-23T13:01:14;3.77;;;1.80;;
12784;SDS011;6456;42.680;23.260;2024-02-23T13:03:43;2.23;;;1.77;;
12784;SDS011;6456;42.680;23.260;2024-02-23T13:06:10;2.30;;;2.10;;
12784;SDS011;6456;42.680;23.260;2024-02-23T13:08:42;2.20;;;2.00;;
12784;SDS011;6456;42.680;23.260;2024-02-23T13:11:14;3.43;;;2.37;;
12784;SDS011;6456;42.680;23.260;2024-02-23T13:13:41;4.80;;;2.07;;
12784;SDS011;6456;42.680;23.260;2024-02-23T13:16:09;4.23;;;1.87;;
12784;SDS011;6456;42.680;23.260;2024-02-23T13:18:40;6.27;;;2.40;;
12784;SDS011;6456;42.680;23.260;2024-02-23T13:21:07;1.50;;;1.40;;
12784;SDS011;6456;42.680;23.260;2024-02-23T13:23:36;1.67;;;1.50;;
12784;SDS011;6456;42.680;23.260;2024-02-23T13:26:06;2.03;;;1.83;;
12784;SDS011;6456;42.680;23.260;2024-02-23T13:28:37;2.13;;;1.97;;
12784;SDS011;6456;42.680;23.260;2024-02-23T13:31:22;1.90;;;1.70;;
12784;SDS011;6456;42.680;23.260;2024-02-23T13:33:49;2.23;;;1.93;;
12784;SDS011;6456;42.680;23.260;2024-02-23T13:36:17;2.00;;;1.90;;
12784;SDS011;6456;42.680;23.260;2024-02-23T13:38:44;2.43;;;1.77;;
12784;SDS011;6456;42.680;23.260;2024-02-23T13:41:12;2.03;;;1.73;;
12784;SDS011;6456;42.680;23.260;2024-02-23T13:43:39;3.57;;;1.80;;
12784;SDS011;6456;42.680;23.260;2024-02-23T13:46:10;3.27;;;2.03;;
12784;SDS011;6456;42.680;23.260;2024-02-23T13:48:37;3.57;;;2.00;;
12784;SDS011;6456;42.680;23.260;2024-02-23T13:51:05;5.63;;;2.20;;
12784;SDS011;6456;42.680;23.260;2024-02-23T13:53:34;2.20;;;1.80;;
12784;SDS011;6456;42.680;23.260;2024-02-23T13:56:05;3.10;;;1.83;;
12784;SDS011;6456;42.680;23.260;2024-02-23T13:58:34;7.57;;;2.20;;
12784;SDS011;6456;42.680;23.260;2024-02-23T14:01:01;2.20;;;2.00;;
12784;SDS011;6456;42.680;23.260;2024-02-23T14:03:30;3.73;;;1.87;;
12784;SDS011;6456;42.680;23.260;2024-02-23T14:06:00;2.00;;;1.90;;
12784;SDS011;6456;42.680;23.260;2024-02-23T14:08:28;2.73;;;2.00;;
12784;SDS011;6456;42.680;23.260;2024-02-23T14:10:55;2.47;;;1.77;;
12784;SDS011;6456;42.680;23.260;2024-02-23T14:13:22;2.70;;;2.27;;
12784;SDS011;6456;42.680;23.260;2024-02-23T14:15:51;6.23;;;2.40;;
12784;SDS011;6456;42.680;23.260;2024-02-23T14:18:19;3.13;;;1.73;;
12784;SDS011;6456;42.680;23.260;2024-02-23T14:20:49;2.80;;;1.90;;
12784;SDS011;6456;42.680;23.260;2024-02-23T14:23:17;2.00;;;1.90;;
12784;SDS011;6456;42.680;23.260;2024-02-23T14:25:44;2.13;;;1.93;;
12784;SDS011;6456;42.680;23.260;2024-02-23T14:28:11;2.47;;;1.60;;
12784;SDS011;6456;42.680;23.260;2024-02-23T14:30:39;2.00;;;1.70;;
12784;SDS011;6456;42.680;23.260;2024-02-23T14:33:09;2.13;;;1.97;;
12784;SDS011;6456;42.680;23.260;2024-02-23T14:35:37;2.00;;;1.90;;
12784;SDS011;6456;42.680;23.260;2024-02-23T14:38:04;1.83;;;1.73;;
12784;SDS011;6456;42.680;23.260;2024-02-23T14:40:31;6.13;;;2.50;;
12784;SDS011;6456;42.680;23.260;2024-02-23T14:42:58;4.00;;;2.10;;